Time;durP1;ratioP1;P1;durP2;ratioP2;P2;SDS_P1;SDS_P2;PMS_P1;PMS_P2;Temp;Humidity;BMP_temperature;BMP_pressure;BME280_temperature;BME280_humidity;BME280_pressure;Samples;Min_cycle;Max_cycle;Signal;HPM_P1;HPM_P2
2022/12/11 00:02:18;;;;;;;30.53;16.33;;;-2.50;99.90;;;;;;5073653;28;20211;-75
2022/12/11 00:04:44;;;;;;;29.63;15.70;;;-2.60;99.90;;;;;;5073789;28;20928;-75
2022/12/11 00:07:10;;;;;;;27.90;15.90;;;-2.60;99.90;;;;;;5073595;28;20407;-75
2022/12/11 00:09:35;;;;;;;29.57;15.73;;;-2.60;99.90;;;;;;5073667;28;20253;-74
2022/12/11 00:12:01;;;;;;;29.77;16.07;;;-2.60;99.90;;;;;;5073455;28;20205;-75
2022/12/11 00:14:28;;;;;;;28.70;15.10;;;-2.60;99.90;;;;;;5073566;28;20225;-74
2022/12/11 00:16:54;;;;;;;28.47;15.13;;;-2.50;99.90;;;;;;5073577;28;20169;-75
2022/12/11 00:19:19;;;;;;;33.23;18.43;;;-2.50;99.90;;;;;;5073539;28;20480;-75
2022/12/11 00:21:45;;;;;;;35.73;18.07;;;-2.60;99.90;;;;;;5073308;28;20197;-75
2022/12/11 00:24:10;;;;;;;29.93;18.00;;;-2.50;99.90;;;;;;5073315;28;20711;-72
2022/12/11 00:26:36;;;;;;;40.37;17.20;;;-2.50;99.90;;;;;;5072363;28;20186;-75
2022/12/11 00:29:02;;;;;;;28.40;16.90;;;-2.40;99.90;;;;;;5073018;28;20212;-74
2022/12/11 00:31:28;;;;;;;32.43;17.47;;;-2.40;99.90;;;;;;5072852;28;20723;-75
2022/12/11 00:33:53;;;;;;;29.73;16.60;;;-2.40;99.90;;;;;;5055711;28;20461;-75
2022/12/11 00:36:21;;;;;;;29.93;17.03;;;-2.30;99.90;;;;;;5076019;28;20210;-74
2022/12/11 00:38:47;;;;;;;29.00;17.03;;;-2.30;99.90;;;;;;5076342;28;20203;-74
2022/12/11 00:41:13;;;;;;;29.20;17.27;;;-2.20;99.90;;;;;;5074426;28;20440;-75
2022/12/11 00:43:39;;;;;;;26.03;16.00;;;-2.20;99.90;;;;;;5073167;28;20396;-75
2022/12/11 00:46:04;;;;;;;31.07;16.17;;;-2.10;99.90;;;;;;5072862;28;20263;-74
2022/12/11 00:48:31;;;;;;;25.83;16.50;;;-2.10;99.90;;;;;;5073056;28;20208;-75
2022/12/11 00:50:56;;;;;;;28.47;17.33;;;-2.00;99.90;;;;;;5072791;28;20248;-75
2022/12/11 00:53:22;;;;;;;29.27;15.63;;;-2.00;99.90;;;;;;5072883;28;20481;-75
2022/12/11 00:55:48;;;;;;;34.67;15.97;;;-1.90;99.90;;;;;;5073305;28;20173;-75
2022/12/11 00:58:14;;;;;;;31.37;17.60;;;-1.90;99.90;;;;;;5073459;28;20184;-75
2022/12/11 01:00:41;;;;;;;28.30;15.43;;;-1.80;99.90;;;;;;5073624;28;20191;-75
2022/12/11 01:03:07;;;;;;;31.87;15.60;;;-1.80;99.90;;;;;;5072742;28;20451;-75
2022/12/11 01:05:33;;;;;;;30.43;18.33;;;-1.70;99.90;;;;;;5054866;28;20477;-75
2022/12/11 01:07:59;;;;;;;23.43;14.50;;;-1.70;99.90;;;;;;5073242;28;20436;-75
2022/12/11 01:10:25;;;;;;;27.70;15.70;;;-1.70;99.90;;;;;;5073109;28;20393;-75
2022/12/11 01:12:59;;;;;;;28.83;15.93;;;-1.60;99.90;;;;;;5072565;28;20227;-75
2022/12/11 01:15:27;;;;;;;25.77;15.03;;;-1.60;99.90;;;;;;5071580;28;20472;-75
2022/12/11 01:17:53;;;;;;;27.67;15.37;;;-1.50;99.90;;;;;;5072362;28;20415;-75
2022/12/11 01:20:20;;;;;;;29.70;14.80;;;-1.50;99.90;;;;;;5072361;28;20385;-75
2022/12/11 01:22:47;;;;;;;23.53;14.47;;;-1.50;99.90;;;;;;5072260;28;20815;-75
2022/12/11 01:25:12;;;;;;;27.23;15.60;;;-1.50;99.90;;;;;;5071972;28;20407;-75
2022/12/11 01:27:38;;;;;;;32.27;15.80;;;-1.40;99.90;;;;;;5071941;28;20431;-75
2022/12/11 01:30:06;;;;;;;22.07;13.77;;;-1.30;99.90;;;;;;5072163;28;20897;-74
2022/12/11 01:32:33;;;;;;;28.83;14.63;;;-1.30;99.90;;;;;;5071812;28;20208;-75
2022/12/11 01:34:58;;;;;;;29.13;15.17;;;-1.30;99.90;;;;;;5071881;28;20769;-75
2022/12/11 01:37:24;;;;;;;29.00;14.20;;;-1.30;99.90;;;;;;5070958;28;20435;-75
2022/12/11 01:39:50;;;;;;;27.93;15.60;;;-1.30;99.90;;;;;;5054022;28;20220;-75
2022/12/11 01:42:19;;;;;;;22.60;14.00;;;-1.20;99.90;;;;;;5071848;28;20701;-75
2022/12/11 01:44:45;;;;;;;25.23;15.00;;;-1.20;99.90;;;;;;5071609;28;20176;-74
2022/12/11 01:47:10;;;;;;;28.20;15.30;;;-1.20;99.90;;;;;;5071806;28;20401;-75
2022/12/11 01:49:39;;;;;;;26.67;14.80;;;-1.10;99.90;;;;;;5071648;28;20211;-75
2022/12/11 01:52:20;;;;;;;24.83;15.37;;;-1.10;99.90;;;;;;5071719;28;20784;-75
2022/12/11 01:54:47;;;;;;;24.50;15.90;;;-1.10;99.90;;;;;;5071359;28;20411;-75
2022/12/11 01:57:14;;;;;;;25.30;14.57;;;-1.10;99.90;;;;;;5071557;28;20382;-75
2022/12/11 01:59:43;;;;;;;24.33;14.93;;;-1.10;99.90;;;;;;5071517;28;20397;-76
2022/12/11 03:32:51;;;;;;;24.73;14.30;;;-0.80;99.90;;;;;;5207250;23;20266;-74
2022/12/11 03:35:32;;;;;;;25.90;15.93;;;-0.80;99.90;;;;;;5004963;28;20385;-74
2022/12/11 03:38:05;;;;;;;30.53;17.10;;;-0.80;99.90;;;;;;5014686;28;20440;-74
2022/12/11 03:40:34;;;;;;;26.00;14.53;;;-0.90;99.90;;;;;;5013436;28;20425;-74
2022/12/11 03:43:00;;;;;;;31.00;15.63;;;-0.90;99.90;;;;;;4984406;28;20419;-74
2022/12/11 03:45:27;;;;;;;27.93;14.77;;;-0.90;99.90;;;;;;4975419;28;20999;-74
2022/12/11 03:47:56;;;;;;;22.80;14.23;;;-0.90;99.90;;;;;;4983480;28;20189;-74
2022/12/11 03:50:24;;;;;;;26.40;16.03;;;-0.90;99.90;;;;;;4994729;28;20457;-74
2022/12/11 03:52:52;;;;;;;24.27;14.50;;;-0.90;99.90;;;;;;4994809;28;20482;-74
2022/12/11 03:55:20;;;;;;;23.20;15.50;;;-1.00;99.90;;;;;;4994346;28;20419;-74
2022/12/11 03:57:45;;;;;;;25.27;14.50;;;-1.00;99.90;;;;;;4994997;28;20422;-74
2022/12/11 04:00:14;;;;;;;23.40;14.47;;;-1.00;99.90;;;;;;4993515;28;20409;-74
2022/12/11 04:02:41;;;;;;;23.10;14.97;;;-1.00;99.90;;;;;;4994465;28;20216;-75
2022/12/11 04:05:07;;;;;;;22.03;14.63;;;-1.00;99.90;;;;;;4994430;28;20478;-75
2022/12/11 04:07:32;;;;;;;24.03;16.17;;;-1.00;99.90;;;;;;4995216;28;20450;-74
2022/12/11 04:09:58;;;;;;;30.87;14.83;;;-0.90;99.90;;;;;;4996228;28;20455;-74
2022/12/11 04:12:24;;;;;;;26.70;15.20;;;-0.90;99.90;;;;;;4995548;28;20713;-74
2022/12/11 04:15:02;;;;;;;24.30;14.27;;;-0.90;99.90;;;;;;4995429;28;20414;-74
2022/12/11 04:25:49;;;;;;;20.83;13.73;;;-1.00;99.90;;;;;;4994507;28;20409;-74
2022/12/11 04:28:15;;;;;;;18.90;12.57;;;-1.00;99.90;;;;;;4994357;28;20455;-74
2022/12/11 04:30:47;;;;;;;19.23;12.10;;;-1.00;99.90;;;;;;4994686;28;20271;-74
2022/12/11 04:33:13;;;;;;;20.33;12.87;;;-1.00;99.90;;;;;;4994420;28;20200;-75
2022/12/11 04:35:38;;;;;;;18.80;11.90;;;-1.00;99.90;;;;;;4994172;28;20397;-73
2022/12/11 04:38:04;;;;;;;18.83;10.07;;;-0.90;99.90;;;;;;4994492;28;20203;-73
2022/12/11 04:40:30;;;;;;;21.80;11.40;;;-0.90;99.90;;;;;;4994062;28;20211;-74
2022/12/11 04:42:55;;;;;;;25.50;11.50;;;-0.90;99.90;;;;;;4993846;28;20466;-74
2022/12/11 04:45:21;;;;;;;22.27;12.10;;;-0.90;99.90;;;;;;4993549;28;20222;-74
2022/12/11 04:47:46;;;;;;;17.73;11.57;;;-1.00;99.90;;;;;;4993611;28;20179;-74
2022/12/11 04:50:14;;;;;;;20.70;10.83;;;-1.00;99.90;;;;;;4993743;28;20176;-74
2022/12/11 04:52:40;;;;;;;20.30;11.93;;;-0.90;99.90;;;;;;4993557;28;20191;-74
2022/12/11 04:55:06;;;;;;;18.07;11.13;;;-0.90;99.90;;;;;;4976047;28;20937;-74
2022/12/11 04:57:33;;;;;;;19.60;11.90;;;-1.00;99.90;;;;;;4993576;28;20186;-74
2022/12/11 04:59:58;;;;;;;16.90;10.67;;;-0.90;99.90;;;;;;4993521;28;20444;-74
2022/12/11 05:02:25;;;;;;;24.40;11.60;;;-1.00;99.90;;;;;;4993388;28;20936;-76
2022/12/11 05:04:51;;;;;;;18.07;11.03;;;-1.00;99.90;;;;;;4993234;28;20167;-75
2022/12/11 05:07:16;;;;;;;16.17;10.30;;;-1.00;99.90;;;;;;4993526;28;20962;-76
2022/12/11 05:09:42;;;;;;;16.47;10.40;;;-1.00;99.90;;;;;;4993279;28;20206;-75
2022/12/11 05:12:08;;;;;;;16.97;10.70;;;-0.90;99.90;;;;;;4993248;28;20207;-75
2022/12/11 05:14:33;;;;;;;17.70;10.37;;;-0.80;99.90;;;;;;4992921;28;20271;-75
2022/12/11 05:16:59;;;;;;;17.33;10.37;;;-0.90;99.90;;;;;;4993335;28;20562;-75
2022/12/11 05:19:25;;;;;;;23.83;10.33;;;-0.90;99.90;;;;;;4993233;28;20188;-75
2022/12/11 05:21:50;;;;;;;21.73;10.60;;;-0.90;99.90;;;;;;4993017;28;20221;-75
2022/12/11 05:24:16;;;;;;;16.87;10.17;;;-0.90;99.90;;;;;;4992901;28;20183;-75
2022/12/11 05:26:41;;;;;;;17.20;10.37;;;-0.90;99.90;;;;;;4975530;28;20536;-75
2022/12/11 05:29:07;;;;;;;14.10;9.73;;;-0.90;99.90;;;;;;4993205;28;20296;-75
2022/12/11 05:31:32;;;;;;;18.67;10.20;;;-1.00;99.90;;;;;;4992680;28;20211;-75
2022/12/11 05:33:58;;;;;;;17.73;10.77;;;-1.00;99.90;;;;;;4993383;28;20199;-76
2022/12/11 05:36:26;;;;;;;18.63;11.40;;;-1.10;99.90;;;;;;4992496;28;20251;-74
2022/12/11 05:38:53;;;;;;;17.40;10.33;;;-1.10;99.90;;;;;;4993010;28;20184;-75
2022/12/11 05:41:22;;;;;;;19.73;11.90;;;-1.20;99.90;;;;;;4992663;28;20436;-75
2022/12/11 05:43:47;;;;;;;19.67;11.90;;;-1.20;99.90;;;;;;4992614;28;20407;-75
2022/12/11 05:46:19;;;;;;;20.50;11.60;;;-1.30;99.90;;;;;;4992529;28;20415;-75
2022/12/11 05:48:47;;;;;;;28.53;14.10;;;-1.40;99.90;;;;;;4992633;28;20203;-75
2022/12/11 05:51:13;;;;;;;24.40;13.40;;;-1.50;99.90;;;;;;4991252;28;20407;-75
2022/12/11 05:53:40;;;;;;;19.70;12.30;;;-1.50;99.90;;;;;;4992461;28;20411;-75
2022/12/11 05:56:10;;;;;;;25.60;13.83;;;-1.60;99.90;;;;;;4974914;28;20427;-76
2022/12/11 05:58:37;;;;;;;23.07;12.63;;;-1.60;99.90;;;;;;4992111;28;20439;-75
2022/12/11 06:01:08;;;;;;;18.97;12.40;;;-1.70;99.90;;;;;;4992415;28;20461;-75
2022/12/11 06:03:33;;;;;;;23.13;13.93;;;-1.70;99.90;;;;;;4992133;28;20429;-75
2022/12/11 06:06:03;;;;;;;24.67;13.30;;;-1.70;99.90;;;;;;4992123;28;20950;-75
2022/12/11 06:08:29;;;;;;;24.60;13.27;;;-1.70;99.90;;;;;;4991927;28;20192;-75
2022/12/11 06:10:55;;;;;;;26.20;13.17;;;-1.80;99.90;;;;;;4992214;28;20434;-76
2022/12/11 06:13:20;;;;;;;21.00;13.07;;;-1.80;99.90;;;;;;4992091;28;20183;-75
2022/12/11 06:15:46;;;;;;;19.80;11.80;;;-1.90;99.90;;;;;;4992101;28;20175;-75
2022/12/11 06:18:11;;;;;;;21.70;11.90;;;-1.90;99.90;;;;;;4992238;28;20672;-75
2022/12/11 06:20:37;;;;;;;22.10;12.17;;;-2.00;99.90;;;;;;4991943;28;20175;-75
2022/12/11 06:23:03;;;;;;;25.50;13.70;;;-2.10;99.90;;;;;;4991588;28;20175;-74
2022/12/11 06:25:29;;;;;;;21.43;11.87;;;-2.10;99.90;;;;;;4991784;28;20421;-75
2022/12/11 06:27:55;;;;;;;19.80;10.90;;;-2.20;99.90;;;;;;4991888;28;20216;-75
2022/12/11 06:30:21;;;;;;;23.30;12.97;;;-2.30;99.90;;;;;;4991890;28;20469;-75
2022/12/11 06:32:46;;;;;;;20.97;11.27;;;-2.30;99.90;;;;;;4991924;28;20285;-75
2022/12/11 06:35:12;;;;;;;17.33;11.33;;;-2.40;99.90;;;;;;4992713;28;20399;-75
2022/12/11 06:37:39;;;;;;;18.43;10.70;;;-2.40;99.90;;;;;;4993110;28;20573;-75
2022/12/11 06:40:07;;;;;;;20.60;11.63;;;-2.50;99.90;;;;;;4992302;28;20524;-75
2022/12/11 06:42:33;;;;;;;24.00;11.20;;;-2.50;99.90;;;;;;4991786;28;20473;-75
2022/12/11 06:44:59;;;;;;;18.53;10.97;;;-2.60;99.90;;;;;;4974204;28;20422;-75
2022/12/11 06:47:31;;;;;;;28.57;12.70;;;-2.60;99.90;;;;;;4991701;28;20391;-75
2022/12/11 06:49:56;;;;;;;25.40;13.10;;;-2.70;99.90;;;;;;4991883;28;20211;-75
2022/12/11 06:52:23;;;;;;;24.97;14.97;;;-2.70;99.90;;;;;;4974026;28;20421;-75
2022/12/11 06:54:49;;;;;;;30.07;17.07;;;-2.80;99.90;;;;;;4991602;28;20546;-75
2022/12/11 06:57:16;;;;;;;30.23;17.03;;;-2.80;99.90;;;;;;4991431;28;20418;-76
2022/12/11 06:59:41;;;;;;;35.20;19.53;;;-2.80;99.90;;;;;;4992331;28;21162;-75
2022/12/11 07:02:11;;;;;;;36.00;18.47;;;-2.80;99.90;;;;;;4992223;28;20474;-75
2022/12/11 07:04:36;;;;;;;26.80;15.87;;;-2.80;99.90;;;;;;4991307;28;20178;-74
2022/12/11 07:07:02;;;;;;;26.40;15.63;;;-2.80;99.90;;;;;;4974459;28;20828;-76
2022/12/11 07:09:27;;;;;;;25.40;14.57;;;-2.80;99.90;;;;;;4992023;28;20226;-75
2022/12/11 07:11:53;;;;;;;25.57;15.47;;;-2.80;99.90;;;;;;4992958;28;20702;-75
2022/12/11 07:14:20;;;;;;;28.47;15.40;;;-2.80;99.90;;;;;;4991686;28;20180;-75
2022/12/11 07:16:46;;;;;;;21.63;12.43;;;-2.80;99.90;;;;;;4974741;28;20694;-75
2022/12/11 07:19:11;;;;;;;24.57;13.33;;;-2.70;99.90;;;;;;4992584;28;20435;-76
2022/12/11 07:21:37;;;;;;;26.43;13.50;;;-2.80;99.90;;;;;;4992477;28;20213;-75
2022/12/11 07:24:02;;;;;;;23.43;12.43;;;-2.80;99.90;;;;;;4974630;28;20241;-74
2022/12/11 07:26:28;;;;;;;23.50;13.53;;;-2.70;99.90;;;;;;4991478;28;20234;-75
2022/12/11 07:28:57;;;;;;;19.93;11.50;;;-2.70;99.90;;;;;;4974543;28;20298;-75
2022/12/11 07:31:24;;;;;;;19.97;13.30;;;-2.70;99.90;;;;;;4991292;28;20286;-75
2022/12/11 07:34:02;;;;;;;23.33;12.60;;;-2.60;99.90;;;;;;4974376;28;20413;-76
2022/12/11 07:36:29;;;;;;;24.17;13.20;;;-2.60;99.90;;;;;;4994587;28;20483;-75
2022/12/11 07:38:55;;;;;;;22.30;12.20;;;-2.60;99.90;;;;;;4995273;28;20421;-76
2022/12/11 07:41:21;;;;;;;19.77;12.20;;;-2.50;99.90;;;;;;4994541;28;20857;-75
2022/12/11 07:43:46;;;;;;;19.83;12.43;;;-2.40;99.90;;;;;;4995123;28;20455;-75
2022/12/11 07:46:17;;;;;;;19.90;11.70;;;-2.30;99.90;;;;;;4995070;28;20559;-75
2022/12/11 07:48:44;;;;;;;30.90;13.17;;;-2.30;99.90;;;;;;4995015;28;20207;-75
2022/12/11 07:51:16;;;;;;;19.70;11.93;;;-2.20;99.90;;;;;;4994753;28;20416;-75
2022/12/11 07:53:46;;;;;;;25.70;12.17;;;-2.10;99.90;;;;;;4994896;28;20389;-75
2022/12/11 07:56:12;;;;;;;20.43;12.60;;;-2.00;99.90;;;;;;4994596;28;20424;-75
2022/12/11 07:58:38;;;;;;;21.10;11.87;;;-2.00;99.90;;;;;;4994449;28;20409;-76
2022/12/11 08:01:05;;;;;;;25.87;12.73;;;-1.90;99.90;;;;;;4994721;28;20651;-75
2022/12/11 08:03:30;;;;;;;28.30;13.10;;;-1.90;99.90;;;;;;4994319;28;20188;-75
2022/12/11 08:05:56;;;;;;;23.63;12.60;;;-1.80;99.90;;;;;;4994358;28;20743;-74
2022/12/11 08:08:21;;;;;;;23.83;12.60;;;-1.70;99.90;;;;;;4994188;28;20254;-74
2022/12/11 08:10:47;;;;;;;23.80;13.10;;;-1.70;99.90;;;;;;4994767;28;20183;-74
2022/12/11 08:13:12;;;;;;;24.40;14.30;;;-1.60;99.90;;;;;;4991710;28;20206;-75
2022/12/11 08:15:38;;;;;;;24.60;13.87;;;-1.50;99.90;;;;;;4992997;28;20237;-75
2022/12/11 08:18:04;;;;;;;20.33;13.20;;;-1.40;99.90;;;;;;4993103;28;20257;-75
2022/12/11 08:20:30;;;;;;;22.67;12.30;;;-1.40;99.90;;;;;;4992856;28;20227;-74
2022/12/11 08:22:55;;;;;;;22.53;13.53;;;-1.30;99.90;;;;;;4993199;28;20892;-75
2022/12/11 08:25:21;;;;;;;27.13;14.07;;;-1.10;99.90;;;;;;4992375;28;20693;-76
2022/12/11 08:27:47;;;;;;;22.27;13.47;;;-1.10;99.90;;;;;;4993158;28;20616;-74
2022/12/11 08:30:13;;;;;;;29.83;13.40;;;-1.00;99.90;;;;;;4992648;28;20521;-74
2022/12/11 08:32:38;;;;;;;25.10;13.20;;;-1.00;99.90;;;;;;4992977;28;20667;-75
2022/12/11 08:35:04;;;;;;;27.20;14.70;;;-1.00;99.90;;;;;;4992915;28;20286;-76
2022/12/11 08:37:30;;;;;;;25.63;13.67;;;-0.90;99.90;;;;;;4992757;28;20647;-75
2022/12/11 08:39:55;;;;;;;29.27;15.40;;;-0.90;99.90;;;;;;4993019;28;20421;-74
2022/12/11 08:42:21;;;;;;;31.47;15.07;;;-0.90;99.90;;;;;;4992422;28;20363;-74
2022/12/11 08:44:46;;;;;;;25.87;15.07;;;-0.80;99.90;;;;;;4992749;28;20227;-75
2022/12/11 08:47:14;;;;;;;24.90;15.90;;;-0.80;99.90;;;;;;4992167;28;20223;-75
2022/12/11 08:49:39;;;;;;;24.80;14.77;;;-0.70;99.90;;;;;;4992281;28;20573;-75
2022/12/11 08:52:05;;;;;;;18.50;11.57;;;-0.60;99.90;;;;;;4992508;28;20428;-75
2022/12/11 08:54:30;;;;;;;20.03;11.23;;;-0.70;99.90;;;;;;4992877;28;20249;-75
2022/12/11 08:56:56;;;;;;;16.57;11.13;;;-0.60;99.90;;;;;;4989731;28;20229;-75
2022/12/11 08:59:21;;;;;;;20.27;12.83;;;-0.60;99.90;;;;;;4992952;28;20247;-76
2022/12/11 09:01:47;;;;;;;19.50;12.87;;;-0.60;99.90;;;;;;4993650;28;20224;-77
2022/12/11 09:04:13;;;;;;;18.47;11.47;;;-0.60;99.90;;;;;;4991957;28;20298;-74
2022/12/11 09:06:39;;;;;;;19.00;12.40;;;-0.50;99.90;;;;;;4973529;28;20256;-75
2022/12/11 09:09:04;;;;;;;25.10;12.73;;;-0.50;99.90;;;;;;4973340;28;20226;-76
2022/12/11 09:11:33;;;;;;;22.30;13.80;;;-0.40;99.90;;;;;;4955516;28;20213;-75
2022/12/11 09:14:00;;;;;;;18.87;13.03;;;-0.40;99.90;;;;;;4979478;28;20206;-76
2022/12/11 09:16:26;;;;;;;28.33;14.20;;;-0.30;99.90;;;;;;4991443;28;20456;-75
2022/12/11 09:18:54;;;;;;;19.53;12.37;;;-0.30;99.90;;;;;;4991962;28;20427;-74
2022/12/11 09:21:23;;;;;;;24.23;11.00;;;-0.20;99.90;;;;;;4992261;28;20453;-74
2022/12/11 09:23:51;;;;;;;26.40;13.97;;;0.00;99.90;;;;;;4992074;28;20446;-75
2022/12/11 09:26:17;;;;;;;24.67;12.77;;;0.00;99.90;;;;;;4992276;28;20443;-74
2022/12/11 09:28:43;;;;;;;24.30;13.27;;;0.20;99.90;;;;;;4992023;28;21004;-72
2022/12/11 09:31:09;;;;;;;22.67;12.90;;;0.20;99.90;;;;;;4992166;28;20434;-75
2022/12/11 09:33:35;;;;;;;20.80;11.53;;;0.30;99.90;;;;;;4991912;28;20457;-74
2022/12/11 09:36:01;;;;;;;21.50;11.97;;;0.50;99.90;;;;;;4992161;28;20442;-72
2022/12/11 09:38:28;;;;;;;17.53;11.00;;;0.70;99.90;;;;;;4991734;28;20217;-77
2022/12/11 09:40:54;;;;;;;19.57;11.70;;;0.80;99.90;;;;;;4992037;28;20414;-75
2022/12/11 09:43:45;;;;;;;20.97;12.43;;;1.00;99.90;;;;;;4991825;28;20431;-77
2022/12/11 09:46:13;;;;;;;17.40;10.33;;;1.10;99.90;;;;;;4991991;28;20477;-76
2022/12/11 09:48:43;;;;;;;24.47;11.70;;;1.20;99.90;;;;;;4991903;28;20457;-76
2022/12/11 09:51:31;;;;;;;18.83;10.70;;;1.30;99.90;;;;;;4992141;28;20415;-76
2022/12/11 09:54:01;;;;;;;23.50;13.27;;;1.30;99.90;;;;;;4991912;28;20443;-76
2022/12/11 09:56:38;;;;;;;21.83;14.27;;;1.30;99.90;;;;;;4991516;28;20524;-76
2022/12/11 09:59:24;;;;;;;23.63;12.70;;;1.40;99.90;;;;;;4990842;28;20961;-74
2022/12/11 10:02:13;;;;;;;27.03;13.53;;;1.50;99.90;;;;;;4974330;28;20950;-77
2022/12/11 10:04:46;;;;;;;22.27;14.20;;;1.50;99.90;;;;;;4991830;28;20415;-75
2022/12/11 10:07:33;;;;;;;21.63;12.30;;;1.50;99.90;;;;;;4991564;28;20441;-76
2022/12/11 10:10:20;;;;;;;18.70;11.40;;;1.40;99.90;;;;;;4991776;28;20502;-76
2022/12/11 10:13:01;;;;;;;20.80;12.87;;;1.40;99.90;;;;;;4991420;28;20473;-76
2022/12/11 10:15:45;;;;;;;17.73;12.20;;;1.30;99.90;;;;;;4991225;28;20442;-75
2022/12/11 10:18:14;;;;;;;25.00;14.33;;;1.30;99.90;;;;;;4991569;28;20985;-76
2022/12/11 10:20:41;;;;;;;24.20;12.50;;;1.30;99.90;;;;;;4991456;28;20449;-75
2022/12/11 10:23:12;;;;;;;22.10;12.37;;;1.30;99.90;;;;;;4981938;28;20462;-75
2022/12/11 10:25:47;;;;;;;20.33;12.20;;;1.40;99.90;;;;;;4971582;28;20445;-76
2022/12/11 10:28:16;;;;;;;22.70;13.00;;;1.40;99.90;;;;;;4985301;28;20455;-76
2022/12/11 10:30:53;;;;;;;18.00;12.97;;;1.40;99.90;;;;;;4991354;28;20418;-76
2022/12/11 10:33:27;;;;;;;17.77;11.57;;;1.40;99.90;;;;;;4990977;28;20467;-76
2022/12/11 10:35:56;;;;;;;19.60;13.17;;;1.50;99.90;;;;;;4991448;28;20442;-76
2022/12/11 10:38:32;;;;;;;22.30;11.87;;;1.50;99.90;;;;;;4990959;28;21020;-75
2022/12/11 10:41:02;;;;;;;17.87;11.57;;;1.50;99.90;;;;;;4991496;28;20437;-76
2022/12/11 10:43:38;;;;;;;17.10;11.27;;;1.40;99.90;;;;;;4990983;28;20459;-76
2022/12/11 10:46:12;;;;;;;18.30;11.17;;;1.50;99.90;;;;;;4991465;28;20466;-77
2022/12/11 10:48:52;;;;;;;18.93;11.10;;;1.50;99.90;;;;;;4991071;28;20465;-76
2022/12/11 10:51:17;;;;;;;19.27;11.27;;;1.60;99.90;;;;;;4991116;28;20999;-76
2022/12/11 10:53:48;;;;;;;24.90;13.00;;;1.60;99.90;;;;;;4991147;28;20552;-75
2022/12/11 10:56:13;;;;;;;17.57;10.70;;;1.60;99.90;;;;;;4976893;28;20211;-77
2022/12/11 10:58:48;;;;;;;21.17;11.33;;;1.60;99.90;;;;;;4988693;28;20463;-76
2022/12/11 11:01:17;;;;;;;16.43;10.00;;;1.70;99.90;;;;;;4971898;28;20718;-76
2022/12/11 11:03:55;;;;;;;15.17;8.70;;;1.70;99.90;;;;;;4971150;28;20451;-75
2022/12/11 11:06:22;;;;;;;17.13;9.90;;;1.80;99.90;;;;;;4984628;28;20451;-76
2022/12/11 11:08:54;;;;;;;14.80;10.60;;;1.70;99.90;;;;;;4990961;28;20972;-75
2022/12/11 11:11:37;;;;;;;15.63;9.13;;;1.80;99.90;;;;;;4989006;28;20440;-76
2022/12/11 11:14:15;;;;;;;15.30;10.37;;;1.70;99.90;;;;;;4975546;28;20435;-76
2022/12/11 11:16:43;;;;;;;19.33;9.27;;;1.80;99.90;;;;;;4958306;28;20420;-76
2022/12/11 11:19:22;;;;;;;14.80;8.47;;;1.80;99.90;;;;;;4976549;28;20464;-76
2022/12/11 11:21:54;;;;;;;15.57;9.73;;;1.90;99.90;;;;;;4977244;28;20934;-76
2022/12/11 11:24:44;;;;;;;14.77;8.40;;;1.90;99.90;;;;;;4991890;28;20537;-74
2022/12/11 11:27:38;;;;;;;15.00;8.63;;;2.00;99.90;;;;;;4994513;28;20868;-76
2022/12/11 11:30:15;;;;;;;12.57;8.53;;;2.10;99.90;;;;;;4994382;28;20507;-76
2022/12/11 11:32:42;;;;;;;11.83;8.23;;;2.10;99.90;;;;;;4994468;28;20476;-75
2022/12/11 11:35:10;;;;;;;16.73;8.80;;;2.10;99.90;;;;;;4994019;28;20862;-78
2022/12/11 11:37:38;;;;;;;19.17;10.30;;;2.20;99.90;;;;;;4994659;28;20457;-77
2022/12/11 11:40:13;;;;;;;20.20;12.20;;;2.10;99.90;;;;;;4994618;28;20803;-76
2022/12/11 11:43:02;;;;;;;20.43;10.73;;;2.20;99.90;;;;;;4994252;28;20434;-78
2022/12/11 11:45:42;;;;;;;20.13;12.93;;;2.10;99.90;;;;;;4993939;28;20459;-75
2022/12/11 11:48:36;;;;;;;25.03;13.80;;;2.10;99.90;;;;;;4976808;28;20456;-76
2022/12/11 11:51:13;;;;;;;21.60;13.10;;;2.00;99.90;;;;;;4981136;28;20515;-75
2022/12/11 11:53:40;;;;;;;20.23;11.73;;;2.00;99.90;;;;;;4994823;28;20418;-76
2022/12/11 11:56:33;;;;;;;22.63;12.43;;;2.00;99.90;;;;;;4993914;28;20465;-76
2022/12/11 11:59:10;;;;;;;19.23;11.87;;;1.90;99.90;;;;;;4974763;28;20456;-77
2022/12/11 12:01:36;;;;;;;26.10;13.20;;;1.80;99.90;;;;;;4975934;28;20442;-74
2022/12/11 12:04:03;;;;;;;39.87;23.63;;;1.80;99.90;;;;;;4990714;28;20969;-74
2022/12/11 12:06:52;;;;;;;25.20;14.43;;;1.70;99.90;;;;;;4990253;28;20190;-75
2022/12/11 12:09:26;;;;;;;22.40;13.53;;;1.60;99.90;;;;;;4988007;28;20451;-75
2022/12/11 12:12:17;;;;;;;24.30;13.87;;;1.50;99.90;;;;;;4990875;28;20499;-76
2022/12/11 12:15:08;;;;;;;24.63;13.67;;;1.40;99.90;;;;;;4988660;28;20398;-76
2022/12/11 12:17:52;;;;;;;34.30;15.60;;;1.20;99.90;;;;;;4988396;28;20410;-75
2022/12/11 12:20:43;;;;;;;28.50;16.50;;;1.30;99.90;;;;;;4988220;28;20492;-75
2022/12/11 12:23:40;;;;;;;18.73;12.03;;;1.30;99.90;;;;;;4990129;28;20909;-75
2022/12/11 12:26:30;;;;;;;26.40;15.40;;;1.30;99.90;;;;;;4970234;28;20402;-75
2022/12/11 12:29:16;;;;;;;22.60;13.63;;;1.30;99.90;;;;;;4989727;28;20489;-75
2022/12/11 12:32:01;;;;;;;25.10;13.67;;;1.30;99.90;;;;;;4985714;28;20563;-75
2022/12/11 12:34:41;;;;;;;33.87;18.40;;;1.30;99.90;;;;;;4990101;28;20988;-75
2022/12/11 12:37:33;;;;;;;23.03;14.40;;;1.40;99.90;;;;;;4989525;28;21058;-75
2022/12/11 12:40:24;;;;;;;18.60;12.03;;;1.40;99.90;;;;;;4987784;28;20796;-75
2022/12/11 12:43:21;;;;;;;15.73;11.40;;;1.50;99.90;;;;;;4989362;28;20435;-74
2022/12/11 12:46:05;;;;;;;17.87;11.77;;;1.60;99.90;;;;;;4986264;28;20389;-74
2022/12/11 12:48:31;;;;;;;17.93;11.83;;;1.60;99.90;;;;;;4990021;28;20541;-73
2022/12/11 12:50:57;;;;;;;28.00;14.43;;;1.60;99.90;;;;;;4992884;28;20443;-74
2022/12/11 12:53:27;;;;;;;21.00;12.90;;;1.60;99.90;;;;;;4987748;28;20423;-74
2022/12/11 12:55:53;;;;;;;18.60;10.30;;;1.70;99.90;;;;;;4992237;28;20427;-74
2022/12/11 12:58:34;;;;;;;20.80;11.70;;;1.70;99.90;;;;;;4992170;28;20455;-73
2022/12/11 13:01:16;;;;;;;17.43;11.40;;;1.60;99.90;;;;;;4988013;28;20797;-74
2022/12/11 13:04:01;;;;;;;22.53;13.23;;;1.60;99.90;;;;;;4990540;28;20764;-75
2022/12/11 13:06:44;;;;;;;33.33;15.70;;;1.50;99.90;;;;;;4986786;28;20993;-76
2022/12/11 13:09:18;;;;;;;23.80;14.00;;;1.40;99.90;;;;;;4988254;28;20451;-74
2022/12/11 13:11:45;;;;;;;28.30;16.10;;;1.30;99.90;;;;;;4988465;28;20802;-74
2022/12/11 13:14:14;;;;;;;24.63;14.77;;;1.30;99.90;;;;;;4987033;28;20756;-70
2022/12/11 13:16:45;;;;;;;27.30;16.87;;;1.30;99.90;;;;;;4985150;28;20785;-75
2022/12/11 13:19:22;;;;;;;28.80;16.27;;;1.20;99.90;;;;;;4989553;28;20431;-75
2022/12/11 13:22:13;;;;;;;22.10;14.90;;;1.10;99.90;;;;;;4989114;28;20949;-74
2022/12/11 13:25:17;;;;;;;29.23;15.10;;;1.10;99.90;;;;;;4987522;28;20395;-74
2022/12/11 13:27:42;;;;;;;23.80;15.10;;;1.00;99.90;;;;;;4989511;28;20452;-74
2022/12/11 13:30:14;;;;;;;25.40;14.77;;;1.00;99.90;;;;;;4987201;28;20462;-74
2022/12/11 13:33:00;;;;;;;27.33;14.60;;;0.90;99.90;;;;;;4992555;28;20224;-75
2022/12/11 13:35:26;;;;;;;28.07;15.00;;;0.80;99.90;;;;;;4985884;28;20807;-74
2022/12/11 13:38:02;;;;;;;27.20;14.07;;;0.90;99.90;;;;;;4988923;28;20401;-74
2022/12/11 13:40:35;;;;;;;30.33;15.10;;;0.90;99.90;;;;;;4985649;28;20407;-74
2022/12/11 13:43:04;;;;;;;29.97;14.70;;;1.00;99.90;;;;;;4990199;28;20440;-76
2022/12/11 13:45:58;;;;;;;30.00;15.80;;;1.10;99.90;;;;;;4990234;28;20543;-75
2022/12/11 13:48:30;;;;;;;27.33;15.80;;;1.00;99.90;;;;;;4990478;28;20433;-76
2022/12/11 13:50:57;;;;;;;27.60;14.33;;;1.00;99.90;;;;;;4990439;28;20477;-73
2022/12/11 13:53:23;;;;;;;28.83;16.40;;;0.90;99.90;;;;;;4984258;28;20394;-74
2022/12/11 13:55:59;;;;;;;29.87;17.70;;;0.80;99.90;;;;;;4992234;28;20899;-75
2022/12/11 13:58:25;;;;;;;26.70;16.73;;;0.80;99.90;;;;;;4992725;28;20195;-75
2022/12/11 14:01:06;;;;;;;33.57;17.00;;;0.70;99.90;;;;;;4992390;28;20415;-74
2022/12/11 14:03:32;;;;;;;33.60;17.43;;;0.70;99.90;;;;;;4992426;28;20180;-75
2022/12/11 14:06:00;;;;;;;31.33;18.57;;;0.60;99.90;;;;;;4992086;28;20899;-74
2022/12/11 14:08:31;;;;;;;29.40;15.63;;;0.60;99.90;;;;;;4986973;28;20435;-76
2022/12/11 14:10:57;;;;;;;30.93;16.97;;;0.60;99.90;;;;;;4976832;28;20437;-75
2022/12/11 14:13:26;;;;;;;35.20;17.53;;;0.70;99.90;;;;;;4987647;28;20981;-74
2022/12/11 14:15:52;;;;;;;32.17;17.43;;;0.60;99.90;;;;;;4988256;28;20228;-75
2022/12/11 14:18:28;;;;;;;31.67;18.03;;;0.60;99.90;;;;;;4984018;28;20421;-76
2022/12/11 14:21:00;;;;;;;32.27;17.63;;;0.60;99.90;;;;;;4992323;28;20411;-76
2022/12/11 14:23:31;;;;;;;36.20;19.10;;;0.60;99.90;;;;;;4986080;28;20427;-75
2022/12/11 14:26:02;;;;;;;34.03;17.37;;;0.60;99.90;;;;;;4982022;28;20406;-75